KLYH

Lynchburg Regional Airport

Airport
ICAO code
KLYH
IATA Code
LYH
Summary
ICAO Region
NAM
ICAO Territory
Location

Lynchburg, Virginia

Serving
Lynchburg
Elevation
938 ft
Coordinates
37° 19' 51" N , 79° 12' 5" W
KCC
Metar
KLYH 222254Z 20008KT 10SM CLR 27/22 A2999 RMK AO2 SLP144 T02720222

Lynchburg Regional Airport, also known as Preston Glenn Field, is a public use airport located 5 nm southwest of the central business district of the City of Lynchburg, in Campbell County, Virginia, USA.

Runways

Designator Length Width Surface Rops
17/35 1032 23 ASP Yes/Yes
4/22 1768 46 ASP Yes/Yes

Airport map

Aerial View

SKYbrary Partners:

Safety knowledge contributed by: